createdAt,value
2022-09-30T00:02:14.867Z,100.00
2022-09-30T00:07:18.659Z,100.00
2022-09-30T00:12:29.603Z,100.00
2022-09-30T00:17:32.290Z,100.00
2022-09-30T00:22:33.983Z,100.00
2022-09-30T00:27:41.638Z,100.00
2022-09-30T00:32:49.270Z,100.00
2022-09-30T00:37:55.211Z,100.00
2022-09-30T00:42:59.206Z,100.00
2022-09-30T00:48:08.246Z,100.00
2022-09-30T00:53:50.644Z,100.00
2022-09-30T00:59:00.259Z,100.00
2022-09-30T01:04:13.991Z,100.00
2022-09-30T01:09:24.131Z,100.00
2022-09-30T01:14:30.575Z,100.00
2022-09-30T01:20:17.091Z,100.00
2022-09-30T01:25:24.297Z,100.00
2022-09-30T01:31:05.751Z,100.00
2022-09-30T01:36:24.326Z,100.00
2022-09-30T01:41:55.456Z,100.00
2022-09-30T01:47:25.543Z,100.00
2022-09-30T01:52:34.074Z,100.00
2022-09-30T01:57:57.157Z,100.00
2022-09-30T02:03:04.631Z,100.00
2022-09-30T02:08:42.372Z,100.00
2022-09-30T02:14:15.917Z,100.00
2022-09-30T02:19:26.551Z,100.00
2022-09-30T02:24:37.023Z,100.00
2022-09-30T02:29:42.252Z,100.00
2022-09-30T02:34:54.338Z,100.00
2022-09-30T02:40:02.432Z,100.00
2022-09-30T02:45:10.764Z,100.00
2022-09-30T02:50:56.793Z,100.00
2022-09-30T02:56:04.468Z,100.00
2022-09-30T03:01:11.447Z,100.00
2022-09-30T03:06:15.442Z,100.00
2022-09-30T03:11:23.731Z,100.00
2022-09-30T03:16:39.818Z,100.00
2022-09-30T03:22:19.283Z,100.00
2022-09-30T03:27:41.033Z,100.00
2022-09-30T03:33:10.127Z,100.00
2022-09-30T03:38:24.066Z,100.00
2022-09-30T03:43:39.241Z,100.00
2022-09-30T03:48:43.825Z,100.00
2022-09-30T03:53:56.853Z,100.00
2022-09-30T03:59:00.352Z,100.00
2022-09-30T04:04:02.151Z,100.00
2022-09-30T04:09:09.217Z,100.00
2022-09-30T04:14:24.408Z,100.00
2022-09-30T04:19:27.329Z,100.00
2022-09-30T04:24:29.517Z,100.00
2022-09-30T04:29:31.291Z,100.00
2022-09-30T04:34:35.454Z,100.00
2022-09-30T04:39:39.455Z,100.00
2022-09-30T04:44:41.279Z,100.00
2022-09-30T04:49:43.883Z,100.00
2022-09-30T04:54:45.581Z,100.00
2022-09-30T04:59:53.313Z,100.00
2022-09-30T05:04:57.401Z,100.00
2022-09-30T05:10:07.701Z,100.00
2022-09-30T05:15:12.312Z,100.00
2022-09-30T05:20:20.826Z,100.00
2022-09-30T05:25:26.856Z,100.00
2022-09-30T05:30:30.804Z,100.00
2022-09-30T05:35:34.966Z,100.00
2022-09-30T05:40:40.256Z,100.00
2022-09-30T05:45:42.061Z,100.00
2022-09-30T05:50:44.699Z,100.00
2022-09-30T05:55:51.422Z,100.00
2022-09-30T06:00:55.521Z,100.00
2022-09-30T06:06:00.610Z,100.00
2022-09-30T06:11:11.853Z,100.00
2022-09-30T06:16:18.048Z,100.00
2022-09-30T06:21:20.155Z,100.00
2022-09-30T06:26:24.206Z,100.00
2022-09-30T06:31:31.628Z,100.00
2022-09-30T06:36:37.938Z,100.00
2022-09-30T06:41:44.118Z,100.00
2022-09-30T06:46:54.817Z,100.00
2022-09-30T06:51:56.665Z,100.00
2022-09-30T06:57:00.603Z,100.00
2022-09-30T07:02:05.623Z,100.00
2022-09-30T07:07:12.815Z,100.00
2022-09-30T07:12:17.366Z,100.00
2022-09-30T07:17:22.120Z,100.00
2022-09-30T07:22:31.493Z,100.00
2022-09-30T07:27:41.923Z,100.00
2022-09-30T07:32:47.611Z,100.00
2022-09-30T07:37:53.307Z,100.00
2022-09-30T07:42:55.223Z,100.00
2022-09-30T07:48:01.446Z,100.00
2022-09-30T07:53:04.127Z,100.00
2022-09-30T07:58:07.868Z,100.00
2022-09-30T08:03:10.835Z,100.00
2022-09-30T08:08:17.714Z,100.00
2022-09-30T08:13:20.157Z,100.00
2022-09-30T08:18:22.617Z,100.00
2022-09-30T08:23:32.783Z,100.00
2022-09-30T08:28:42.639Z,100.00
2022-09-30T08:33:55.167Z,100.00
2022-09-30T08:38:57.588Z,100.00
2022-09-30T08:44:27.198Z,100.00
2022-09-30T08:49:47.602Z,100.00
2022-09-30T08:54:57.061Z,100.00
2022-09-30T09:00:05.382Z,100.00
2022-09-30T09:05:18.004Z,100.00
2022-09-30T09:10:24.057Z,100.00
2022-09-30T09:15:47.529Z,100.00
2022-09-30T09:21:00.708Z,99.00
2022-09-30T09:26:04.595Z,97.07
2022-09-30T09:31:17.137Z,96.25
2022-09-30T09:36:32.864Z,95.29
2022-09-30T09:41:52.679Z,94.55
2022-09-30T09:47:14.032Z,93.76
2022-09-30T09:53:01.326Z,93.00
2022-09-30T09:58:19.009Z,90.52
2022-09-30T10:03:23.555Z,90.74
2022-09-30T10:08:29.129Z,89.41
2022-09-30T10:14:03.255Z,89.10
2022-09-30T10:19:18.524Z,88.55
2022-09-30T10:24:27.065Z,88.06
2022-09-30T10:29:32.169Z,87.92
2022-09-30T10:34:41.822Z,87.55
2022-09-30T10:39:56.416Z,85.86
2022-09-30T10:45:02.271Z,84.97
2022-09-30T10:50:08.435Z,83.91
2022-09-30T10:55:20.513Z,82.98
2022-09-30T11:00:26.022Z,82.96
2022-09-30T11:05:34.604Z,81.70
2022-09-30T11:10:36.760Z,80.49
2022-09-30T11:16:07.551Z,81.84
2022-09-30T11:21:33.097Z,81.06
2022-09-30T11:27:06.360Z,81.00
2022-09-30T11:32:28.134Z,78.68
2022-09-30T11:37:32.280Z,75.15
2022-09-30T11:43:03.158Z,74.51
2022-09-30T11:48:14.087Z,73.63
2022-09-30T11:53:23.466Z,70.95
2022-09-30T11:58:46.296Z,67.90
2022-09-30T12:04:40.762Z,65.54
2022-09-30T12:09:50.574Z,63.49
2022-09-30T12:15:13.645Z,65.25
2022-09-30T12:20:34.461Z,65.41
2022-09-30T12:25:52.035Z,59.82
2022-09-30T12:31:08.341Z,57.95
2022-09-30T12:36:34.420Z,56.01
2022-09-30T12:41:58.999Z,52.23
2022-09-30T12:47:21.105Z,50.60
2022-09-30T12:52:32.116Z,51.68
2022-09-30T12:57:41.745Z,47.44
2022-09-30T13:02:51.154Z,51.39
2022-09-30T13:08:05.100Z,48.12
2022-09-30T13:13:31.778Z,48.57
2022-09-30T13:18:34.346Z,49.62
2022-09-30T13:23:42.962Z,45.13
2022-09-30T13:28:49.123Z,44.25
2022-09-30T13:34:02.611Z,50.18
2022-09-30T13:39:46.599Z,47.16
2022-09-30T13:45:16.431Z,52.69
2022-09-30T13:50:19.979Z,48.38
2022-09-30T13:55:29.044Z,44.94
2022-09-30T14:00:47.281Z,43.80
2022-09-30T14:06:00.170Z,43.19
2022-09-30T14:11:17.923Z,46.51
2022-09-30T14:16:36.085Z,48.58
2022-09-30T14:21:49.343Z,45.72
2022-09-30T14:26:57.545Z,43.77
2022-09-30T14:32:00.329Z,43.53
2022-09-30T14:37:04.881Z,45.11
2022-09-30T14:42:14.582Z,43.16
2022-09-30T14:47:22.859Z,43.60
2022-09-30T14:52:38.416Z,44.58
2022-09-30T14:57:45.973Z,47.34
2022-09-30T15:02:49.939Z,46.48
2022-09-30T15:07:51.791Z,47.98
2022-09-30T15:12:56.090Z,49.19
2022-09-30T15:17:57.860Z,50.95
2022-09-30T15:23:03.363Z,53.47
2022-09-30T15:28:07.038Z,53.14
2022-09-30T15:33:18.525Z,54.82
2022-09-30T15:38:25.397Z,55.79
2022-09-30T15:43:37.741Z,56.86
2022-09-30T15:48:44.952Z,56.14
2022-09-30T15:53:48.247Z,56.97
2022-09-30T15:58:57.006Z,56.71
2022-09-30T16:04:11.043Z,58.06
2022-09-30T16:09:36.488Z,59.54
2022-09-30T16:14:49.661Z,59.43
2022-09-30T16:19:55.008Z,60.28
2022-09-30T16:25:15.790Z,60.86
2022-09-30T16:30:22.488Z,62.40
2022-09-30T16:35:33.652Z,63.16
2022-09-30T16:40:35.832Z,63.82
2022-09-30T16:45:38.539Z,64.29
2022-09-30T16:50:43.329Z,65.10
2022-09-30T16:55:48.168Z,64.22
2022-09-30T17:00:49.943Z,66.24
2022-09-30T17:05:55.675Z,66.18
2022-09-30T17:11:01.419Z,66.38
2022-09-30T17:16:04.406Z,66.60
2022-09-30T17:21:06.175Z,67.09
2022-09-30T17:26:15.160Z,67.01
2022-09-30T17:31:22.149Z,67.66
2022-09-30T17:36:27.700Z,67.36
2022-09-30T17:41:53.547Z,67.61
2022-09-30T17:47:00.228Z,68.44
2022-09-30T17:52:06.722Z,69.01
2022-09-30T17:57:11.493Z,69.23
2022-09-30T18:02:17.655Z,68.74
2022-09-30T18:07:23.797Z,69.16
2022-09-30T18:12:34.994Z,69.32
2022-09-30T18:17:42.186Z,69.16
2022-09-30T18:22:44.809Z,68.61
2022-09-30T18:27:57.298Z,69.33
2022-09-30T18:32:59.436Z,69.03
2022-09-30T18:38:04.803Z,70.24
2022-09-30T18:43:11.152Z,70.63
2022-09-30T18:48:14.567Z,70.83
2022-09-30T18:53:16.344Z,70.97
2022-09-30T18:58:18.905Z,71.03
2022-09-30T19:03:20.812Z,71.42
2022-09-30T19:08:22.665Z,71.38
2022-09-30T19:13:27.439Z,72.01
2022-09-30T19:18:31.881Z,72.21
2022-09-30T19:23:34.096Z,72.71
2022-09-30T19:28:40.582Z,73.15
2022-09-30T19:33:56.041Z,73.18
2022-09-30T19:39:11.441Z,74.00
2022-09-30T19:44:18.776Z,74.06
2022-09-30T19:49:23.857Z,74.71
2022-09-30T19:54:36.450Z,75.14
2022-09-30T19:59:51.446Z,74.75
2022-09-30T20:04:53.834Z,75.34
2022-09-30T20:09:58.302Z,75.70
2022-09-30T20:15:18.893Z,75.63
2022-09-30T20:20:37.157Z,75.99
2022-09-30T20:25:39.138Z,76.30
2022-09-30T20:30:45.654Z,76.42
2022-09-30T20:35:48.172Z,76.94
2022-09-30T20:40:56.630Z,76.71
2022-09-30T20:46:05.279Z,76.75
2022-09-30T20:51:12.645Z,76.05
2022-09-30T20:56:16.369Z,76.69
2022-09-30T21:01:23.689Z,76.00
2022-09-30T21:06:28.063Z,76.23
2022-09-30T21:11:29.906Z,77.05
2022-09-30T21:16:31.958Z,77.72
2022-09-30T21:21:36.745Z,77.04
2022-09-30T21:26:38.418Z,77.88
2022-09-30T21:31:45.492Z,77.64
2022-09-30T21:36:53.520Z,77.66
2022-09-30T21:41:56.000Z,77.94
2022-09-30T21:47:02.647Z,77.72
2022-09-30T21:52:09.180Z,77.78
2022-09-30T21:57:13.106Z,78.33
2022-09-30T22:02:17.520Z,78.30
2022-09-30T22:07:24.094Z,78.68
2022-09-30T22:12:28.220Z,78.05
2022-09-30T22:17:32.335Z,78.60
2022-09-30T22:22:36.649Z,78.38
2022-09-30T22:27:40.868Z,79.14
2022-09-30T22:32:45.111Z,79.29
2022-09-30T22:38:11.126Z,78.99
2022-09-30T22:43:17.766Z,79.43
2022-09-30T22:48:22.540Z,78.74
2022-09-30T22:53:29.271Z,78.62
2022-09-30T22:58:36.923Z,78.80
2022-09-30T23:03:42.383Z,78.92
2022-09-30T23:08:49.307Z,78.91
2022-09-30T23:13:59.021Z,79.08
2022-09-30T23:19:02.401Z,79.03
2022-09-30T23:24:04.823Z,79.13
2022-09-30T23:29:18.902Z,79.13
2022-09-30T23:34:22.779Z,78.92
2022-09-30T23:39:26.617Z,79.04
2022-09-30T23:44:32.945Z,78.90
2022-09-30T23:49:40.268Z,79.33
2022-09-30T23:54:42.451Z,79.05
2022-09-30T23:59:46.462Z,78.97
